sensor_id;sensor_type;location;lat;lon;timestamp;P1;durP1;ratioP1;P2;durP2;ratioP2
36715;SDS011;22699;51.034;3.730;2022-12-18T00:02:05;102.93;;;55.70;;
36715;SDS011;22699;51.034;3.730;2022-12-18T00:04:31;104.18;;;57.42;;
36715;SDS011;22699;51.034;3.730;2022-12-18T00:06:56;97.43;;;53.58;;
36715;SDS011;22699;51.034;3.730;2022-12-18T00:09:22;96.93;;;53.67;;
36715;SDS011;22699;51.034;3.730;2022-12-18T00:11:48;90.40;;;50.45;;
36715;SDS011;22699;51.034;3.730;2022-12-18T00:14:13;96.65;;;53.05;;
36715;SDS011;22699;51.034;3.730;2022-12-18T00:16:39;96.65;;;55.45;;
36715;SDS011;22699;51.034;3.730;2022-12-18T00:19:08;98.03;;;54.40;;
36715;SDS011;22699;51.034;3.730;2022-12-18T00:21:38;102.32;;;55.03;;
36715;SDS011;22699;51.034;3.730;2022-12-18T00:24:03;99.80;;;56.47;;
36715;SDS011;22699;51.034;3.730;2022-12-18T00:26:30;105.13;;;56.85;;
36715;SDS011;22699;51.034;3.730;2022-12-18T00:29:00;97.88;;;53.95;;
36715;SDS011;22699;51.034;3.730;2022-12-18T00:31:32;96.28;;;50.85;;
36715;SDS011;22699;51.034;3.730;2022-12-18T00:33:57;98.80;;;50.05;;
36715;SDS011;22699;51.034;3.730;2022-12-18T00:36:24;86.15;;;48.35;;
36715;SDS011;22699;51.034;3.730;2022-12-18T00:38:57;96.07;;;50.40;;
36715;SDS011;22699;51.034;3.730;2022-12-18T00:41:23;91.45;;;50.42;;
36715;SDS011;22699;51.034;3.730;2022-12-18T00:44:10;91.97;;;47.70;;
36715;SDS011;22699;51.034;3.730;2022-12-18T00:46:37;88.43;;;47.83;;
36715;SDS011;22699;51.034;3.730;2022-12-18T00:49:03;91.30;;;46.28;;
36715;SDS011;22699;51.034;3.730;2022-12-18T00:51:29;90.07;;;45.30;;
36715;SDS011;22699;51.034;3.730;2022-12-18T00:53:54;96.32;;;46.85;;
36715;SDS011;22699;51.034;3.730;2022-12-18T00:56:20;89.82;;;46.60;;
36715;SDS011;22699;51.034;3.730;2022-12-18T00:58:46;84.80;;;43.92;;
36715;SDS011;22699;51.034;3.730;2022-12-18T01:01:11;92.45;;;44.33;;
36715;SDS011;22699;51.034;3.730;2022-12-18T01:03:37;95.60;;;45.08;;
36715;SDS011;22699;51.034;3.730;2022-12-18T01:06:10;86.75;;;47.80;;
36715;SDS011;22699;51.034;3.730;2022-12-18T01:08:37;84.32;;;46.97;;
36715;SDS011;22699;51.034;3.730;2022-12-18T01:11:09;87.80;;;43.42;;
36715;SDS011;22699;51.034;3.730;2022-12-18T01:13:39;83.75;;;42.53;;
36715;SDS011;22699;51.034;3.730;2022-12-18T01:16:05;81.80;;;45.40;;
36715;SDS011;22699;51.034;3.730;2022-12-18T01:18:31;95.93;;;46.08;;
36715;SDS011;22699;51.034;3.730;2022-12-18T01:20:58;90.85;;;44.28;;
36715;SDS011;22699;51.034;3.730;2022-12-18T01:23:23;91.20;;;44.30;;
36715;SDS011;22699;51.034;3.730;2022-12-18T01:25:52;80.22;;;42.53;;
36715;SDS011;22699;51.034;3.730;2022-12-18T01:28:17;92.72;;;44.15;;
36715;SDS011;22699;51.034;3.730;2022-12-18T01:30:43;95.32;;;45.60;;
36715;SDS011;22699;51.034;3.730;2022-12-18T01:33:09;90.32;;;45.13;;
36715;SDS011;22699;51.034;3.730;2022-12-18T01:35:44;87.05;;;43.05;;
36715;SDS011;22699;51.034;3.730;2022-12-18T01:38:12;86.68;;;41.38;;
36715;SDS011;22699;51.034;3.730;2022-12-18T01:40:38;87.18;;;43.15;;
36715;SDS011;22699;51.034;3.730;2022-12-18T01:43:03;78.78;;;40.10;;
36715;SDS011;22699;51.034;3.730;2022-12-18T01:45:30;76.60;;;40.85;;
36715;SDS011;22699;51.034;3.730;2022-12-18T01:48:00;75.53;;;38.67;;
36715;SDS011;22699;51.034;3.730;2022-12-18T01:50:30;74.68;;;38.65;;
36715;SDS011;22699;51.034;3.730;2022-12-18T01:53:17;73.85;;;36.80;;
36715;SDS011;22699;51.034;3.730;2022-12-18T01:55:50;73.57;;;37.08;;
36715;SDS011;22699;51.034;3.730;2022-12-18T01:58:18;75.95;;;37.28;;
36715;SDS011;22699;51.034;3.730;2022-12-18T02:00:49;72.88;;;36.20;;
36715;SDS011;22699;51.034;3.730;2022-12-18T02:03:14;72.68;;;36.63;;
36715;SDS011;22699;51.034;3.730;2022-12-18T02:05:50;69.13;;;35.85;;
36715;SDS011;22699;51.034;3.730;2022-12-18T02:08:43;65.43;;;34.88;;
36715;SDS011;22699;51.034;3.730;2022-12-18T02:19:37;67.93;;;32.53;;
36715;SDS011;22699;51.034;3.730;2022-12-18T02:27:50;67.75;;;32.97;;
36715;SDS011;22699;51.034;3.730;2022-12-18T02:30:19;70.75;;;34.53;;
36715;SDS011;22699;51.034;3.730;2022-12-18T02:32:47;62.25;;;35.28;;
36715;SDS011;22699;51.034;3.730;2022-12-18T02:35:20;62.25;;;33.47;;
36715;SDS011;22699;51.034;3.730;2022-12-18T02:37:49;63.65;;;32.70;;
36715;SDS011;22699;51.034;3.730;2022-12-18T02:40:19;54.40;;;26.98;;
36715;SDS011;22699;51.034;3.730;2022-12-18T02:42:48;57.27;;;31.60;;
36715;SDS011;22699;51.034;3.730;2022-12-18T02:45:14;64.30;;;32.17;;
36715;SDS011;22699;51.034;3.730;2022-12-18T02:47:41;59.55;;;31.27;;
36715;SDS011;22699;51.034;3.730;2022-12-18T02:55:49;54.72;;;28.65;;
36715;SDS011;22699;51.034;3.730;2022-12-18T03:01:55;63.85;;;31.23;;
36715;SDS011;22699;51.034;3.730;2022-12-18T03:04:02;54.95;;;29.45;;
36715;SDS011;22699;51.034;3.730;2022-12-18T03:06:39;59.72;;;31.10;;
36715;SDS011;22699;51.034;3.730;2022-12-18T03:09:12;58.33;;;30.63;;
36715;SDS011;22699;51.034;3.730;2022-12-18T03:11:43;52.20;;;28.92;;
36715;SDS011;22699;51.034;3.730;2022-12-18T03:14:33;52.53;;;27.80;;
36715;SDS011;22699;51.034;3.730;2022-12-18T03:17:03;61.75;;;30.33;;
36715;SDS011;22699;51.034;3.730;2022-12-18T03:19:34;57.40;;;28.40;;
36715;SDS011;22699;51.034;3.730;2022-12-18T03:22:01;50.47;;;27.45;;
36715;SDS011;22699;51.034;3.730;2022-12-18T03:24:30;50.83;;;28.93;;
36715;SDS011;22699;51.034;3.730;2022-12-18T03:27:00;52.35;;;27.58;;
36715;SDS011;22699;51.034;3.730;2022-12-18T03:29:35;52.38;;;26.15;;
36715;SDS011;22699;51.034;3.730;2022-12-18T03:32:10;54.65;;;27.83;;
36715;SDS011;22699;51.034;3.730;2022-12-18T03:34:44;50.70;;;25.20;;
36715;SDS011;22699;51.034;3.730;2022-12-18T03:37:14;46.17;;;25.35;;
36715;SDS011;22699;51.034;3.730;2022-12-18T03:39:40;48.15;;;23.58;;
36715;SDS011;22699;51.034;3.730;2022-12-18T03:45:09;49.47;;;25.33;;
36715;SDS011;22699;51.034;3.730;2022-12-18T03:50:46;46.78;;;23.60;;
36715;SDS011;22699;51.034;3.730;2022-12-18T03:53:35;47.37;;;24.77;;
36715;SDS011;22699;51.034;3.730;2022-12-18T03:56:02;48.85;;;25.02;;
36715;SDS011;22699;51.034;3.730;2022-12-18T03:58:29;45.90;;;23.65;;
36715;SDS011;22699;51.034;3.730;2022-12-18T04:00:59;51.20;;;24.40;;
36715;SDS011;22699;51.034;3.730;2022-12-18T04:03:27;49.58;;;26.02;;
36715;SDS011;22699;51.034;3.730;2022-12-18T04:05:56;46.37;;;24.50;;
36715;SDS011;22699;51.034;3.730;2022-12-18T04:08:24;48.78;;;24.73;;
36715;SDS011;22699;51.034;3.730;2022-12-18T04:10:50;47.05;;;24.23;;
36715;SDS011;22699;51.034;3.730;2022-12-18T04:13:23;44.80;;;24.17;;
36715;SDS011;22699;51.034;3.730;2022-12-18T04:15:50;48.50;;;24.95;;
36715;SDS011;22699;51.034;3.730;2022-12-18T04:18:15;45.45;;;23.90;;
36715;SDS011;22699;51.034;3.730;2022-12-18T04:20:41;47.15;;;24.77;;
36715;SDS011;22699;51.034;3.730;2022-12-18T04:23:08;46.58;;;24.13;;
36715;SDS011;22699;51.034;3.730;2022-12-18T04:25:33;46.28;;;24.70;;
36715;SDS011;22699;51.034;3.730;2022-12-18T04:27:59;47.30;;;24.20;;
36715;SDS011;22699;51.034;3.730;2022-12-18T04:30:24;45.20;;;24.13;;
36715;SDS011;22699;51.034;3.730;2022-12-18T04:32:50;46.35;;;25.25;;
36715;SDS011;22699;51.034;3.730;2022-12-18T04:35:16;43.33;;;23.95;;
36715;SDS011;22699;51.034;3.730;2022-12-18T04:37:41;41.10;;;22.13;;
36715;SDS011;22699;51.034;3.730;2022-12-18T04:40:07;43.45;;;22.52;;
36715;SDS011;22699;51.034;3.730;2022-12-18T04:42:33;43.67;;;24.88;;
36715;SDS011;22699;51.034;3.730;2022-12-18T04:44:59;43.60;;;23.67;;
36715;SDS011;22699;51.034;3.730;2022-12-18T04:47:24;50.55;;;24.85;;
36715;SDS011;22699;51.034;3.730;2022-12-18T04:49:50;47.33;;;24.55;;
36715;SDS011;22699;51.034;3.730;2022-12-18T04:52:15;47.33;;;23.42;;
36715;SDS011;22699;51.034;3.730;2022-12-18T04:54:41;41.20;;;22.27;;
36715;SDS011;22699;51.034;3.730;2022-12-18T04:57:06;35.95;;;21.08;;
36715;SDS011;22699;51.034;3.730;2022-12-18T04:59:32;43.58;;;22.40;;
36715;SDS011;22699;51.034;3.730;2022-12-18T05:01:58;43.72;;;22.60;;
36715;SDS011;22699;51.034;3.730;2022-12-18T05:04:23;39.97;;;20.25;;
36715;SDS011;22699;51.034;3.730;2022-12-18T05:06:49;43.03;;;21.48;;
36715;SDS011;22699;51.034;3.730;2022-12-18T05:09:15;41.63;;;22.10;;
36715;SDS011;22699;51.034;3.730;2022-12-18T05:11:40;42.60;;;21.55;;
36715;SDS011;22699;51.034;3.730;2022-12-18T05:14:06;36.20;;;20.70;;
36715;SDS011;22699;51.034;3.730;2022-12-18T05:16:31;45.50;;;23.27;;
36715;SDS011;22699;51.034;3.730;2022-12-18T05:18:57;39.30;;;20.77;;
36715;SDS011;22699;51.034;3.730;2022-12-18T05:21:23;42.20;;;23.25;;
36715;SDS011;22699;51.034;3.730;2022-12-18T05:23:48;39.35;;;21.55;;
36715;SDS011;22699;51.034;3.730;2022-12-18T05:26:15;44.08;;;22.60;;
36715;SDS011;22699;51.034;3.730;2022-12-18T05:28:42;44.83;;;23.05;;
36715;SDS011;22699;51.034;3.730;2022-12-18T05:31:09;41.85;;;22.23;;
36715;SDS011;22699;51.034;3.730;2022-12-18T05:33:36;38.70;;;21.05;;
36715;SDS011;22699;51.034;3.730;2022-12-18T05:36:03;43.47;;;23.30;;
36715;SDS011;22699;51.034;3.730;2022-12-18T05:38:31;42.92;;;22.58;;
36715;SDS011;22699;51.034;3.730;2022-12-18T05:40:57;37.70;;;22.25;;
36715;SDS011;22699;51.034;3.730;2022-12-18T05:43:23;38.13;;;22.38;;
36715;SDS011;22699;51.034;3.730;2022-12-18T05:45:50;44.75;;;24.02;;
36715;SDS011;22699;51.034;3.730;2022-12-18T05:48:17;41.25;;;23.15;;
36715;SDS011;22699;51.034;3.730;2022-12-18T05:50:44;43.17;;;22.25;;
36715;SDS011;22699;51.034;3.730;2022-12-18T05:53:11;43.90;;;23.60;;
36715;SDS011;22699;51.034;3.730;2022-12-18T05:55:39;41.55;;;23.92;;
36715;SDS011;22699;51.034;3.730;2022-12-18T05:58:07;44.33;;;23.75;;
36715;SDS011;22699;51.034;3.730;2022-12-18T06:00:34;37.67;;;22.45;;
36715;SDS011;22699;51.034;3.730;2022-12-18T06:03:05;40.13;;;21.92;;
36715;SDS011;22699;51.034;3.730;2022-12-18T06:05:34;40.30;;;19.80;;
36715;SDS011;22699;51.034;3.730;2022-12-18T06:08:04;36.88;;;21.13;;
36715;SDS011;22699;51.034;3.730;2022-12-18T06:10:30;38.95;;;21.08;;
36715;SDS011;22699;51.034;3.730;2022-12-18T06:12:56;36.20;;;21.60;;
36715;SDS011;22699;51.034;3.730;2022-12-18T06:15:21;40.30;;;20.67;;
36715;SDS011;22699;51.034;3.730;2022-12-18T06:17:47;35.88;;;20.40;;
36715;SDS011;22699;51.034;3.730;2022-12-18T06:20:12;36.53;;;19.40;;
36715;SDS011;22699;51.034;3.730;2022-12-18T06:22:38;36.00;;;20.40;;
36715;SDS011;22699;51.034;3.730;2022-12-18T06:25:04;42.17;;;23.67;;
36715;SDS011;22699;51.034;3.730;2022-12-18T06:27:31;34.83;;;19.30;;
36715;SDS011;22699;51.034;3.730;2022-12-18T06:29:58;34.40;;;19.50;;
36715;SDS011;22699;51.034;3.730;2022-12-18T06:32:24;35.90;;;19.52;;
36715;SDS011;22699;51.034;3.730;2022-12-18T06:34:50;35.03;;;19.83;;
36715;SDS011;22699;51.034;3.730;2022-12-18T06:37:16;35.33;;;21.20;;
36715;SDS011;22699;51.034;3.730;2022-12-18T06:39:41;34.85;;;17.95;;
36715;SDS011;22699;51.034;3.730;2022-12-18T06:42:07;34.83;;;19.15;;
36715;SDS011;22699;51.034;3.730;2022-12-18T06:44:33;32.88;;;19.08;;
36715;SDS011;22699;51.034;3.730;2022-12-18T06:46:58;29.65;;;17.85;;
36715;SDS011;22699;51.034;3.730;2022-12-18T06:49:24;30.02;;;17.48;;
36715;SDS011;22699;51.034;3.730;2022-12-18T06:51:50;30.90;;;18.30;;
36715;SDS011;22699;51.034;3.730;2022-12-18T06:54:15;33.80;;;18.77;;
36715;SDS011;22699;51.034;3.730;2022-12-18T06:56:41;37.53;;;18.50;;
36715;SDS011;22699;51.034;3.730;2022-12-18T06:59:06;34.08;;;18.30;;
36715;SDS011;22699;51.034;3.730;2022-12-18T07:01:32;29.98;;;17.83;;
36715;SDS011;22699;51.034;3.730;2022-12-18T07:03:57;34.78;;;17.48;;
36715;SDS011;22699;51.034;3.730;2022-12-18T07:06:24;35.08;;;17.65;;
36715;SDS011;22699;51.034;3.730;2022-12-18T07:08:50;37.80;;;18.77;;
36715;SDS011;22699;51.034;3.730;2022-12-18T07:11:17;32.28;;;17.58;;
36715;SDS011;22699;51.034;3.730;2022-12-18T07:13:45;33.70;;;17.13;;
36715;SDS011;22699;51.034;3.730;2022-12-18T07:16:12;32.22;;;18.05;;
36715;SDS011;22699;51.034;3.730;2022-12-18T07:18:39;32.88;;;17.95;;
36715;SDS011;22699;51.034;3.730;2022-12-18T07:21:05;30.45;;;17.52;;
36715;SDS011;22699;51.034;3.730;2022-12-18T07:23:33;34.58;;;19.00;;
36715;SDS011;22699;51.034;3.730;2022-12-18T07:26:03;30.48;;;17.45;;
36715;SDS011;22699;51.034;3.730;2022-12-18T07:28:31;32.70;;;16.88;;
36715;SDS011;22699;51.034;3.730;2022-12-18T07:30:57;30.92;;;17.80;;
36715;SDS011;22699;51.034;3.730;2022-12-18T07:33:24;33.15;;;18.10;;
36715;SDS011;22699;51.034;3.730;2022-12-18T07:35:50;29.38;;;16.55;;
36715;SDS011;22699;51.034;3.730;2022-12-18T07:38:16;28.83;;;15.63;;
36715;SDS011;22699;51.034;3.730;2022-12-18T07:40:41;75.72;;;21.48;;
36715;SDS011;22699;51.034;3.730;2022-12-18T07:43:07;28.88;;;16.45;;
36715;SDS011;22699;51.034;3.730;2022-12-18T07:45:33;32.85;;;17.17;;
36715;SDS011;22699;51.034;3.730;2022-12-18T07:47:58;33.40;;;18.38;;
36715;SDS011;22699;51.034;3.730;2022-12-18T07:50:24;33.15;;;18.38;;
36715;SDS011;22699;51.034;3.730;2022-12-18T07:52:49;28.52;;;15.88;;
36715;SDS011;22699;51.034;3.730;2022-12-18T07:55:15;28.33;;;16.60;;
36715;SDS011;22699;51.034;3.730;2022-12-18T07:57:41;34.67;;;16.58;;
36715;SDS011;22699;51.034;3.730;2022-12-18T08:00:07;27.73;;;17.17;;
36715;SDS011;22699;51.034;3.730;2022-12-18T08:02:33;29.20;;;16.02;;
36715;SDS011;22699;51.034;3.730;2022-12-18T08:04:59;27.17;;;15.05;;
36715;SDS011;22699;51.034;3.730;2022-12-18T08:07:24;25.95;;;16.00;;
36715;SDS011;22699;51.034;3.730;2022-12-18T08:09:50;25.65;;;15.27;;
36715;SDS011;22699;51.034;3.730;2022-12-18T08:12:17;25.45;;;14.35;;
36715;SDS011;22699;51.034;3.730;2022-12-18T08:14:42;24.92;;;14.88;;
36715;SDS011;22699;51.034;3.730;2022-12-18T08:17:08;23.50;;;14.15;;
36715;SDS011;22699;51.034;3.730;2022-12-18T08:19:37;22.23;;;13.82;;
36715;SDS011;22699;51.034;3.730;2022-12-18T08:22:02;25.55;;;14.35;;
36715;SDS011;22699;51.034;3.730;2022-12-18T08:24:28;23.83;;;14.07;;
36715;SDS011;22699;51.034;3.730;2022-12-18T08:26:53;18.67;;;13.05;;
36715;SDS011;22699;51.034;3.730;2022-12-18T08:29:19;24.55;;;14.02;;
36715;SDS011;22699;51.034;3.730;2022-12-18T08:31:45;25.58;;;15.07;;
36715;SDS011;22699;51.034;3.730;2022-12-18T08:34:12;23.48;;;14.20;;
36715;SDS011;22699;51.034;3.730;2022-12-18T08:36:37;24.30;;;15.70;;
36715;SDS011;22699;51.034;3.730;2022-12-18T08:39:04;25.98;;;15.43;;
36715;SDS011;22699;51.034;3.730;2022-12-18T08:41:30;22.33;;;13.13;;
36715;SDS011;22699;51.034;3.730;2022-12-18T08:43:55;22.42;;;13.88;;
36715;SDS011;22699;51.034;3.730;2022-12-18T08:46:40;21.50;;;14.80;;
36715;SDS011;22699;51.034;3.730;2022-12-18T08:49:09;22.17;;;14.13;;
36715;SDS011;22699;51.034;3.730;2022-12-18T08:51:36;21.38;;;14.30;;
36715;SDS011;22699;51.034;3.730;2022-12-18T08:54:03;23.77;;;14.00;;
36715;SDS011;22699;51.034;3.730;2022-12-18T08:56:30;24.02;;;15.20;;
36715;SDS011;22699;51.034;3.730;2022-12-18T08:58:56;26.83;;;15.23;;
36715;SDS011;22699;51.034;3.730;2022-12-18T09:01:22;23.02;;;14.68;;
36715;SDS011;22699;51.034;3.730;2022-12-18T09:03:49;20.38;;;13.38;;
36715;SDS011;22699;51.034;3.730;2022-12-18T09:06:16;21.52;;;13.32;;
36715;SDS011;22699;51.034;3.730;2022-12-18T09:08:43;22.83;;;15.00;;
36715;SDS011;22699;51.034;3.730;2022-12-18T09:11:13;20.85;;;13.68;;
36715;SDS011;22699;51.034;3.730;2022-12-18T09:13:45;21.00;;;12.95;;
36715;SDS011;22699;51.034;3.730;2022-12-18T09:16:11;21.75;;;13.35;;
36715;SDS011;22699;51.034;3.730;2022-12-18T09:18:37;19.92;;;12.80;;
36715;SDS011;22699;51.034;3.730;2022-12-18T09:21:14;20.77;;;12.90;;
36715;SDS011;22699;51.034;3.730;2022-12-18T09:23:41;22.33;;;13.55;;
36715;SDS011;22699;51.034;3.730;2022-12-18T09:26:07;21.77;;;13.80;;
36715;SDS011;22699;51.034;3.730;2022-12-18T09:28:33;23.90;;;13.43;;
36715;SDS011;22699;51.034;3.730;2022-12-18T09:30:59;22.75;;;14.70;;
36715;SDS011;22699;51.034;3.730;2022-12-18T09:33:30;25.10;;;13.80;;
36715;SDS011;22699;51.034;3.730;2022-12-18T09:35:56;20.42;;;12.25;;
36715;SDS011;22699;51.034;3.730;2022-12-18T09:38:21;20.83;;;11.93;;
36715;SDS011;22699;51.034;3.730;2022-12-18T09:40:50;18.05;;;11.85;;
36715;SDS011;22699;51.034;3.730;2022-12-18T09:43:19;19.15;;;13.18;;
36715;SDS011;22699;51.034;3.730;2022-12-18T09:45:51;18.90;;;12.60;;
36715;SDS011;22699;51.034;3.730;2022-12-18T09:48:28;19.55;;;13.18;;
36715;SDS011;22699;51.034;3.730;2022-12-18T09:51:03;19.55;;;12.32;;
36715;SDS011;22699;51.034;3.730;2022-12-18T09:53:37;17.85;;;12.68;;
36715;SDS011;22699;51.034;3.730;2022-12-18T09:56:06;19.77;;;12.65;;
36715;SDS011;22699;51.034;3.730;2022-12-18T09:58:53;20.92;;;13.07;;
36715;SDS011;22699;51.034;3.730;2022-12-18T10:01:23;19.60;;;12.52;;
36715;SDS011;22699;51.034;3.730;2022-12-18T10:03:50;21.33;;;13.07;;
36715;SDS011;22699;51.034;3.730;2022-12-18T10:11:40;22.58;;;13.95;;
36715;SDS011;22699;51.034;3.730;2022-12-18T10:19:39;20.25;;;13.63;;
36715;SDS011;22699;51.034;3.730;2022-12-18T10:27:35;23.20;;;13.73;;
36715;SDS011;22699;51.034;3.730;2022-12-18T10:30:04;22.00;;;13.80;;
36715;SDS011;22699;51.034;3.730;2022-12-18T10:32:45;20.63;;;13.63;;
36715;SDS011;22699;51.034;3.730;2022-12-18T10:35:22;20.10;;;13.88;;
36715;SDS011;22699;51.034;3.730;2022-12-18T10:40:55;20.77;;;13.77;;
36715;SDS011;22699;51.034;3.730;2022-12-18T10:46:35;23.50;;;15.15;;
36715;SDS011;22699;51.034;3.730;2022-12-18T10:51:33;23.42;;;14.18;;
36715;SDS011;22699;51.034;3.730;2022-12-18T10:54:18;22.35;;;14.13;;
36715;SDS011;22699;51.034;3.730;2022-12-18T10:56:50;22.65;;;13.65;;
36715;SDS011;22699;51.034;3.730;2022-12-18T10:59:16;22.10;;;15.32;;
36715;SDS011;22699;51.034;3.730;2022-12-18T11:04:31;25.60;;;16.40;;
36715;SDS011;22699;51.034;3.730;2022-12-18T11:07:04;26.23;;;17.05;;
36715;SDS011;22699;51.034;3.730;2022-12-18T11:09:34;24.85;;;14.55;;
36715;SDS011;22699;51.034;3.730;2022-12-18T11:12:19;23.83;;;14.23;;
36715;SDS011;22699;51.034;3.730;2022-12-18T11:14:49;24.33;;;15.05;;
36715;SDS011;22699;51.034;3.730;2022-12-18T11:17:35;21.65;;;14.73;;
36715;SDS011;22699;51.034;3.730;2022-12-18T11:20:02;29.88;;;14.80;;
36715;SDS011;22699;51.034;3.730;2022-12-18T11:22:44;23.27;;;15.75;;
36715;SDS011;22699;51.034;3.730;2022-12-18T11:25:21;23.65;;;14.27;;
36715;SDS011;22699;51.034;3.730;2022-12-18T11:27:49;22.55;;;13.95;;
36715;SDS011;22699;51.034;3.730;2022-12-18T11:33:13;22.02;;;13.38;;
36715;SDS011;22699;51.034;3.730;2022-12-18T11:38:20;22.40;;;13.02;;
36715;SDS011;22699;51.034;3.730;2022-12-18T11:44:22;20.10;;;11.77;;
36715;SDS011;22699;51.034;3.730;2022-12-18T11:46:56;20.30;;;12.95;;
36715;SDS011;22699;51.034;3.730;2022-12-18T11:49:28;21.08;;;11.93;;
36715;SDS011;22699;51.034;3.730;2022-12-18T11:52:04;19.27;;;12.18;;
36715;SDS011;22699;51.034;3.730;2022-12-18T11:54:45;21.02;;;13.02;;
36715;SDS011;22699;51.034;3.730;2022-12-18T11:57:18;20.70;;;13.07;;
36715;SDS011;22699;51.034;3.730;2022-12-18T12:00:16;19.88;;;13.52;;
36715;SDS011;22699;51.034;3.730;2022-12-18T12:05:55;19.67;;;12.90;;
36715;SDS011;22699;51.034;3.730;2022-12-18T12:08:57;20.33;;;12.85;;
36715;SDS011;22699;51.034;3.730;2022-12-18T12:22:35;22.75;;;13.93;;
36715;SDS011;22699;51.034;3.730;2022-12-18T12:25:29;19.25;;;12.23;;
36715;SDS011;22699;51.034;3.730;2022-12-18T12:30:53;21.02;;;14.60;;
36715;SDS011;22699;51.034;3.730;2022-12-18T12:36:25;26.13;;;15.88;;
36715;SDS011;22699;51.034;3.730;2022-12-18T12:39:06;24.63;;;15.60;;
36715;SDS011;22699;51.034;3.730;2022-12-18T12:41:35;25.02;;;14.98;;
36715;SDS011;22699;51.034;3.730;2022-12-18T12:44:24;24.90;;;15.98;;
36715;SDS011;22699;51.034;3.730;2022-12-18T12:46:55;24.40;;;15.60;;
36715;SDS011;22699;51.034;3.730;2022-12-18T12:49:26;22.08;;;15.25;;
36715;SDS011;22699;51.034;3.730;2022-12-18T12:52:00;24.63;;;16.05;;
36715;SDS011;22699;51.034;3.730;2022-12-18T12:54:30;25.15;;;15.70;;
36715;SDS011;22699;51.034;3.730;2022-12-18T12:59:46;27.85;;;16.33;;
36715;SDS011;22699;51.034;3.730;2022-12-18T13:05:29;26.77;;;17.25;;
36715;SDS011;22699;51.034;3.730;2022-12-18T13:08:04;30.98;;;17.23;;
36715;SDS011;22699;51.034;3.730;2022-12-18T13:10:34;30.67;;;18.63;;
36715;SDS011;22699;51.034;3.730;2022-12-18T13:20:45;29.58;;;18.10;;
36715;SDS011;22699;51.034;3.730;2022-12-18T13:31:00;30.85;;;18.48;;
36715;SDS011;22699;51.034;3.730;2022-12-18T13:38:36;31.45;;;19.40;;
36715;SDS011;22699;51.034;3.730;2022-12-18T13:41:04;30.13;;;18.08;;
36715;SDS011;22699;51.034;3.730;2022-12-18T13:43:49;30.38;;;19.08;;
36715;SDS011;22699;51.034;3.730;2022-12-18T13:51:39;32.25;;;18.88;;
36715;SDS011;22699;51.034;3.730;2022-12-18T13:54:35;34.13;;;20.35;;
36715;SDS011;22699;51.034;3.730;2022-12-18T13:57:04;32.22;;;19.85;;
36715;SDS011;22699;51.034;3.730;2022-12-18T13:59:50;31.70;;;19.77;;
36715;SDS011;22699;51.034;3.730;2022-12-18T14:02:20;35.15;;;20.85;;
36715;SDS011;22699;51.034;3.730;2022-12-18T14:04:48;32.83;;;20.25;;
36715;SDS011;22699;51.034;3.730;2022-12-18T14:09:40;33.08;;;20.25;;
36715;SDS011;22699;51.034;3.730;2022-12-18T14:12:15;29.17;;;18.35;;
36715;SDS011;22699;51.034;3.730;2022-12-18T14:15:05;34.22;;;20.58;;
36715;SDS011;22699;51.034;3.730;2022-12-18T14:17:45;31.05;;;18.95;;
36715;SDS011;22699;51.034;3.730;2022-12-18T14:20:13;32.50;;;19.73;;
36715;SDS011;22699;51.034;3.730;2022-12-18T14:22:39;32.22;;;19.00;;
36715;SDS011;22699;51.034;3.730;2022-12-18T14:28:14;29.25;;;18.25;;
36715;SDS011;22699;51.034;3.730;2022-12-18T14:30:34;33.50;;;19.40;;
36715;SDS011;22699;51.034;3.730;2022-12-18T14:33:11;31.88;;;19.60;;
36715;SDS011;22699;51.034;3.730;2022-12-18T14:35:40;34.65;;;20.58;;
36715;SDS011;22699;51.034;3.730;2022-12-18T14:38:27;31.33;;;18.58;;
36715;SDS011;22699;51.034;3.730;2022-12-18T14:41:00;31.73;;;19.48;;
36715;SDS011;22699;51.034;3.730;2022-12-18T14:43:27;35.10;;;20.38;;
36715;SDS011;22699;51.034;3.730;2022-12-18T14:45:54;34.75;;;19.88;;
36715;SDS011;22699;51.034;3.730;2022-12-18T14:54:03;32.38;;;19.95;;
36715;SDS011;22699;51.034;3.730;2022-12-18T14:56:42;31.65;;;18.35;;
36715;SDS011;22699;51.034;3.730;2022-12-18T14:59:17;36.08;;;19.08;;
36715;SDS011;22699;51.034;3.730;2022-12-18T15:01:49;29.88;;;18.27;;
36715;SDS011;22699;51.034;3.730;2022-12-18T15:07:19;36.55;;;19.83;;
36715;SDS011;22699;51.034;3.730;2022-12-18T15:18:05;35.30;;;20.58;;
36715;SDS011;22699;51.034;3.730;2022-12-18T15:20:39;37.53;;;22.20;;
36715;SDS011;22699;51.034;3.730;2022-12-18T15:23:21;37.65;;;19.50;;
36715;SDS011;22699;51.034;3.730;2022-12-18T15:25:48;34.75;;;20.25;;
36715;SDS011;22699;51.034;3.730;2022-12-18T15:28:27;35.35;;;19.80;;
36715;SDS011;22699;51.034;3.730;2022-12-18T15:33:41;36.72;;;20.15;;
36715;SDS011;22699;51.034;3.730;2022-12-18T15:36:10;33.92;;;19.58;;
36715;SDS011;22699;51.034;3.730;2022-12-18T15:38:37;32.78;;;19.25;;
36715;SDS011;22699;51.034;3.730;2022-12-18T15:41:11;33.13;;;20.02;;
36715;SDS011;22699;51.034;3.730;2022-12-18T15:43:39;34.25;;;19.52;;
36715;SDS011;22699;51.034;3.730;2022-12-18T15:48:32;32.85;;;19.95;;
36715;SDS011;22699;51.034;3.730;2022-12-18T15:50:59;36.63;;;19.23;;
36715;SDS011;22699;51.034;3.730;2022-12-18T15:53:27;33.38;;;19.75;;
36715;SDS011;22699;51.034;3.730;2022-12-18T15:55:56;34.78;;;18.58;;
36715;SDS011;22699;51.034;3.730;2022-12-18T15:58:41;30.48;;;19.17;;
36715;SDS011;22699;51.034;3.730;2022-12-18T16:01:07;31.92;;;18.83;;
36715;SDS011;22699;51.034;3.730;2022-12-18T16:03:35;34.33;;;18.55;;
36715;SDS011;22699;51.034;3.730;2022-12-18T16:06:01;34.72;;;18.27;;
36715;SDS011;22699;51.034;3.730;2022-12-18T16:08:30;36.55;;;20.13;;
36715;SDS011;22699;51.034;3.730;2022-12-18T16:10:56;35.17;;;19.58;;
36715;SDS011;22699;51.034;3.730;2022-12-18T16:13:23;33.47;;;18.73;;
36715;SDS011;22699;51.034;3.730;2022-12-18T16:15:48;33.78;;;18.98;;
36715;SDS011;22699;51.034;3.730;2022-12-18T16:18:14;33.55;;;18.40;;
36715;SDS011;22699;51.034;3.730;2022-12-18T16:20:41;34.60;;;19.60;;
36715;SDS011;22699;51.034;3.730;2022-12-18T16:23:08;32.97;;;18.77;;
36715;SDS011;22699;51.034;3.730;2022-12-18T16:25:33;34.10;;;19.52;;
36715;SDS011;22699;51.034;3.730;2022-12-18T16:27:59;34.15;;;19.23;;
36715;SDS011;22699;51.034;3.730;2022-12-18T16:30:26;33.67;;;18.25;;
36715;SDS011;22699;51.034;3.730;2022-12-18T16:35:21;31.42;;;17.88;;
36715;SDS011;22699;51.034;3.730;2022-12-18T16:37:47;31.17;;;17.55;;
36715;SDS011;22699;51.034;3.730;2022-12-18T16:40:13;30.20;;;17.40;;
36715;SDS011;22699;51.034;3.730;2022-12-18T16:42:41;35.83;;;18.85;;
36715;SDS011;22699;51.034;3.730;2022-12-18T16:45:10;32.30;;;18.02;;
36715;SDS011;22699;51.034;3.730;2022-12-18T16:47:37;33.93;;;18.60;;
36715;SDS011;22699;51.034;3.730;2022-12-18T16:50:03;35.92;;;18.65;;
36715;SDS011;22699;51.034;3.730;2022-12-18T16:52:30;33.50;;;18.67;;
36715;SDS011;22699;51.034;3.730;2022-12-18T16:54:56;32.60;;;18.65;;
36715;SDS011;22699;51.034;3.730;2022-12-18T16:57:22;31.42;;;19.08;;
36715;SDS011;22699;51.034;3.730;2022-12-18T16:59:47;34.58;;;18.15;;
36715;SDS011;22699;51.034;3.730;2022-12-18T17:02:21;34.42;;;17.92;;